Blacksburg, VA (24061)

6:19 PM EDT on September 21, 2014 (GMT -0400)
near Laurel Ridge | Change Station
CLOSE
Current Station
Personal Weather Station
Location: Blacksburg, VA
Elevation: 2120 ft
Nearby Weather Stations

Elev 2120 ft 37.26 °N, 80.45 °W | Updated 4 minutes ago

Rain
Rain
67.2 °F
Feels Like 67.2 °F
N
0.0
Wind Variable Wind from WNW
Gusts 1.0 mph

Today
High -- | Low -- °F
--% Chance of Precip.
Yesterday
High -- | Low -- °F
Precip. -- in
7:08 AM 7:20 PM
Waning Crescent, 5% visible
Pressure 29.88 in
Visibility 5.0 miles
Clouds Scattered Clouds 2600 ft
Mostly Cloudy 3900 ft
Mostly Cloudy 4900 ft
Dew Point 66 °F
Humidity 95%
Rainfall 0.11 in
Snow Depth Not available.
UV 1 out of 12
Pollen 5.20 out of 12
Air Quality Not available.
Flu Activity Not available.
METAR KBCB 212155Z AUTO 29004KT 5SM BR SCT026 BKN039 BKN049 21/21 A2988 RMK AO2 P0007

More Conditions Fewer Conditions

Pressure 29.88 in
Visibility 5.0 miles
Clouds Scattered Clouds 2600 ft
Mostly Cloudy 3900 ft
Mostly Cloudy 4900 ft
Dew Point 66 °F
Humidity 95%
Rainfall 0.11 in
Snow Depth Not available.
UV 1 out of 12
Pollen 5.20 out of 12
Air Quality Not available.
Flu Activity Not available.
METAR KBCB 212155Z AUTO 29004KT 5SM BR SCT026 BKN039 BKN049 21/21 A2988 RMK AO2 P0007

More Conditions Fewer Conditions

10-Day Weather Forecast

Almanac

Astronomy

Sep. 21, 2014 Rise Set
Actual Time 7:08 AM EDT 7:20 PM EDT
Civil Twilight 6:42 AM EDT 7:46 PM EDT
Nautical Twilight 6:12 AM EDT 8:16 PM EDT
Astronomical Twilight 5:41 AM EDT 8:47 PM EDT
Moon 4:43 AM EDT 5:53 PM EDT
Length of Visible Light 13h 03m
Length of Day
12h 11m
Tomorrow will be 2m 22s shorter.
Waning Crescent, 5% of the Moon is Illuminated
Today
Waning Crescent
Sep 24
New
Oct 1
First Quarter
Oct 8
Full
Oct 15
Last Quarter

Today's Extremes

State Highs State Lows

Community

WunderPhotos

Upload Photos

1,755,269 photos uploaded!

WunderBlogs® & News

Nearby

Snow Depth

Station Depth Elevation
No new snow has been reported.

Earthquake Activity

City Distance Mag. Time & Date
No recent earthquake activity has been reported nearby.
Minimum magnitude displayed is 2.5.

Coastal Water Temperatures

Place Temperature
No Stations Reporting

Nearby Weather Stations